sensor_id;sensor_type;location;lat;lon;timestamp;temperature;humidity
6930;DHT22;3504;52.616;13.238;2023-10-08T00:00:45;12.38;87.51
6930;DHT22;3504;52.616;13.238;2023-10-08T00:05:54;12.39;87.49
6930;DHT22;3504;52.616;13.238;2023-10-08T00:10:56;12.30;87.83
6930;DHT22;3504;52.616;13.238;2023-10-08T00:15:56;12.28;87.94
6930;DHT22;3504;52.616;13.238;2023-10-08T00:20:57;12.29;87.91
6930;DHT22;3504;52.616;13.238;2023-10-08T00:26:12;12.24;88.36
6930;DHT22;3504;52.616;13.238;2023-10-08T00:31:17;12.28;88.36
6930;DHT22;3504;52.616;13.238;2023-10-08T00:36:18;12.28;88.36
6930;DHT22;3504;52.616;13.238;2023-10-08T00:41:19;12.26;88.34
6930;DHT22;3504;52.616;13.238;2023-10-08T00:46:22;12.22;88.28
6930;DHT22;3504;52.616;13.238;2023-10-08T00:51:25;12.12;88.32
6930;DHT22;3504;52.616;13.238;2023-10-08T00:56:29;12.17;88.32
6930;DHT22;3504;52.616;13.238;2023-10-08T01:01:51;12.19;88.41
6930;DHT22;3504;52.616;13.238;2023-10-08T01:06:56;12.19;88.01
6930;DHT22;3504;52.616;13.238;2023-10-08T01:12:13;12.15;88.05
6930;DHT22;3504;52.616;13.238;2023-10-08T01:17:26;12.12;88.23
6930;DHT22;3504;52.616;13.238;2023-10-08T01:22:32;12.09;88.16
6930;DHT22;3504;52.616;13.238;2023-10-08T01:27:33;12.09;88.24
6930;DHT22;3504;52.616;13.238;2023-10-08T01:32:41;12.12;88.31
6930;DHT22;3504;52.616;13.238;2023-10-08T01:37:41;12.15;88.13
6930;DHT22;3504;52.616;13.238;2023-10-08T01:42:42;12.14;87.94
6930;DHT22;3504;52.616;13.238;2023-10-08T01:47:42;12.15;88.10
6930;DHT22;3504;52.616;13.238;2023-10-08T01:52:43;12.11;88.00
6930;DHT22;3504;52.616;13.238;2023-10-08T01:57:47;12.06;88.15
6930;DHT22;3504;52.616;13.238;2023-10-08T02:02:52;12.05;88.13
6930;DHT22;3504;52.616;13.238;2023-10-08T02:07:54;12.04;88.25
6930;DHT22;3504;52.616;13.238;2023-10-08T02:12:55;11.98;88.47
6930;DHT22;3504;52.616;13.238;2023-10-08T02:17:55;11.94;88.66
6930;DHT22;3504;52.616;13.238;2023-10-08T02:22:57;11.91;88.76
6930;DHT22;3504;52.616;13.238;2023-10-08T02:28:02;11.89;88.74
6930;DHT22;3504;52.616;13.238;2023-10-08T02:33:03;11.88;88.81
6930;DHT22;3504;52.616;13.238;2023-10-08T02:38:17;11.91;88.65
6930;DHT22;3504;52.616;13.238;2023-10-08T02:43:18;11.87;88.83
6930;DHT22;3504;52.616;13.238;2023-10-08T02:48:18;11.88;88.75
6930;DHT22;3504;52.616;13.238;2023-10-08T02:53:20;11.88;89.00
6930;DHT22;3504;52.616;13.238;2023-10-08T02:58:26;11.91;88.42
6930;DHT22;3504;52.616;13.238;2023-10-08T03:03:28;11.85;88.65
6930;DHT22;3504;52.616;13.238;2023-10-08T03:08:29;11.85;89.06
6930;DHT22;3504;52.616;13.238;2023-10-08T03:13:31;11.81;88.95
6930;DHT22;3504;52.616;13.238;2023-10-08T03:18:32;11.82;88.86
6930;DHT22;3504;52.616;13.238;2023-10-08T03:23:36;11.82;89.09
6930;DHT22;3504;52.616;13.238;2023-10-08T03:28:44;11.79;88.92
6930;DHT22;3504;52.616;13.238;2023-10-08T03:33:45;11.82;89.12
6930;DHT22;3504;52.616;13.238;2023-10-08T03:38:49;11.81;88.85
6930;DHT22;3504;52.616;13.238;2023-10-08T03:43:53;11.81;88.81
6930;DHT22;3504;52.616;13.238;2023-10-08T03:48:58;11.79;88.33
6930;DHT22;3504;52.616;13.238;2023-10-08T03:54:08;11.74;88.86
6930;DHT22;3504;52.616;13.238;2023-10-08T03:59:19;11.74;88.77
6930;DHT22;3504;52.616;13.238;2023-10-08T04:04:31;11.70;88.80
6930;DHT22;3504;52.616;13.238;2023-10-08T04:09:49;11.66;88.89
6930;DHT22;3504;52.616;13.238;2023-10-08T04:14:52;11.60;88.98
6930;DHT22;3504;52.616;13.238;2023-10-08T04:19:56;11.63;89.16
6930;DHT22;3504;52.616;13.238;2023-10-08T04:24:58;11.53;88.73
6930;DHT22;3504;52.616;13.238;2023-10-08T04:30:03;11.48;88.35
6930;DHT22;3504;52.616;13.238;2023-10-08T04:35:04;11.48;88.41
6930;DHT22;3504;52.616;13.238;2023-10-08T04:40:08;11.47;88.08
6930;DHT22;3504;52.616;13.238;2023-10-08T04:45:16;11.40;87.50
6930;DHT22;3504;52.616;13.238;2023-10-08T04:50:19;11.35;87.66
6930;DHT22;3504;52.616;13.238;2023-10-08T04:55:21;11.27;87.16
6930;DHT22;3504;52.616;13.238;2023-10-08T05:00:29;11.17;86.94
6930;DHT22;3504;52.616;13.238;2023-10-08T05:05:42;11.07;86.74
6930;DHT22;3504;52.616;13.238;2023-10-08T05:11:02;10.97;86.82
6930;DHT22;3504;52.616;13.238;2023-10-08T05:16:15;10.93;87.09
6930;DHT22;3504;52.616;13.238;2023-10-08T05:21:37;10.82;86.92
6930;DHT22;3504;52.616;13.238;2023-10-08T05:26:51;10.79;86.96
6930;DHT22;3504;52.616;13.238;2023-10-08T05:32:09;10.82;86.94
6930;DHT22;3504;52.616;13.238;2023-10-08T05:37:38;10.75;86.53
6930;DHT22;3504;52.616;13.238;2023-10-08T05:42:42;10.72;86.69
6930;DHT22;3504;52.616;13.238;2023-10-08T05:48:01;10.74;86.87
6930;DHT22;3504;52.616;13.238;2023-10-08T05:53:13;10.72;86.60
6930;DHT22;3504;52.616;13.238;2023-10-08T05:58:30;10.76;87.03
6930;DHT22;3504;52.616;13.238;2023-10-08T06:03:46;10.79;86.99
6930;DHT22;3504;52.616;13.238;2023-10-08T06:09:00;10.82;86.95
6930;DHT22;3504;52.616;13.238;2023-10-08T06:14:22;10.88;86.93
6930;DHT22;3504;52.616;13.238;2023-10-08T06:19:41;10.96;87.28
6930;DHT22;3504;52.616;13.238;2023-10-08T06:24:41;11.03;87.77
6930;DHT22;3504;52.616;13.238;2023-10-08T06:29:42;11.09;87.82
6930;DHT22;3504;52.616;13.238;2023-10-08T06:34:47;11.15;87.75
6930;DHT22;3504;52.616;13.238;2023-10-08T06:39:48;11.17;87.55
6930;DHT22;3504;52.616;13.238;2023-10-08T06:44:48;11.27;87.82
6930;DHT22;3504;52.616;13.238;2023-10-08T06:49:49;11.46;87.41
6930;DHT22;3504;52.616;13.238;2023-10-08T06:54:52;11.50;86.91
6930;DHT22;3504;52.616;13.238;2023-10-08T06:59:53;11.50;86.52
6930;DHT22;3504;52.616;13.238;2023-10-08T07:04:54;11.47;85.81
6930;DHT22;3504;52.616;13.238;2023-10-08T07:09:54;11.54;85.76
6930;DHT22;3504;52.616;13.238;2023-10-08T07:14:58;11.64;84.86
6930;DHT22;3504;52.616;13.238;2023-10-08T07:19:59;11.67;85.08
6930;DHT22;3504;52.616;13.238;2023-10-08T07:24:59;11.70;83.73
6930;DHT22;3504;52.616;13.238;2023-10-08T07:30:00;11.77;84.47
6930;DHT22;3504;52.616;13.238;2023-10-08T07:35:03;11.81;83.14
6930;DHT22;3504;52.616;13.238;2023-10-08T07:40:23;11.82;81.95
6930;DHT22;3504;52.616;13.238;2023-10-08T07:45:29;11.85;80.77
6930;DHT22;3504;52.616;13.238;2023-10-08T07:50:41;11.92;81.25
6930;DHT22;3504;52.616;13.238;2023-10-08T07:55:42;11.92;80.57
6930;DHT22;3504;52.616;13.238;2023-10-08T08:00:44;12.06;80.96
6930;DHT22;3504;52.616;13.238;2023-10-08T08:05:56;12.05;78.87
6930;DHT22;3504;52.616;13.238;2023-10-08T08:11:00;12.18;80.32
6930;DHT22;3504;52.616;13.238;2023-10-08T08:16:05;12.30;79.84
6930;DHT22;3504;52.616;13.238;2023-10-08T08:21:19;12.28;76.63
6930;DHT22;3504;52.616;13.238;2023-10-08T08:26:23;12.42;78.76
6930;DHT22;3504;52.616;13.238;2023-10-08T08:31:30;12.56;77.28
6930;DHT22;3504;52.616;13.238;2023-10-08T08:36:31;12.69;76.78
6930;DHT22;3504;52.616;13.238;2023-10-08T08:41:32;12.88;74.39
6930;DHT22;3504;52.616;13.238;2023-10-08T08:46:37;13.03;74.28
6930;DHT22;3504;52.616;13.238;2023-10-08T08:51:38;13.15;71.13
6930;DHT22;3504;52.616;13.238;2023-10-08T08:56:38;13.36;73.54
6930;DHT22;3504;52.616;13.238;2023-10-08T09:01:41;13.59;73.13
6930;DHT22;3504;52.616;13.238;2023-10-08T09:06:42;13.86;71.97
6930;DHT22;3504;52.616;13.238;2023-10-08T09:11:45;14.00;70.23
6930;DHT22;3504;52.616;13.238;2023-10-08T09:16:45;14.06;60.56
6930;DHT22;3504;52.616;13.238;2023-10-08T09:22:07;14.38;67.10
6930;DHT22;3504;52.616;13.238;2023-10-08T09:27:10;14.63;66.82
6930;DHT22;3504;52.616;13.238;2023-10-08T09:32:14;14.89;64.68
6930;DHT22;3504;52.616;13.238;2023-10-08T09:37:23;15.22;65.88
6930;DHT22;3504;52.616;13.238;2023-10-08T09:42:23;15.16;56.93
6930;DHT22;3504;52.616;13.238;2023-10-08T09:47:27;15.10;56.62
6930;DHT22;3504;52.616;13.238;2023-10-08T09:52:37;15.33;60.89
6930;DHT22;3504;52.616;13.238;2023-10-08T09:57:39;15.51;61.52
6930;DHT22;3504;52.616;13.238;2023-10-08T10:02:43;15.78;62.33
6930;DHT22;3504;52.616;13.238;2023-10-08T10:07:43;15.37;59.39
6930;DHT22;3504;52.616;13.238;2023-10-08T10:12:44;15.44;62.05
6930;DHT22;3504;52.616;13.238;2023-10-08T10:17:47;15.82;60.30
6930;DHT22;3504;52.616;13.238;2023-10-08T10:22:47;15.95;52.19
6930;DHT22;3504;52.616;13.238;2023-10-08T10:32:52;16.36;58.23
6930;DHT22;3504;52.616;13.238;2023-10-08T10:37:52;16.24;47.83
6930;DHT22;3504;52.616;13.238;2023-10-08T10:42:56;16.31;55.41
6930;DHT22;3504;52.616;13.238;2023-10-08T10:47:57;16.29;54.87
6930;DHT22;3504;52.616;13.238;2023-10-08T10:53:11;16.57;54.57
6930;DHT22;3504;52.616;13.238;2023-10-08T10:58:11;16.83;51.91
6930;DHT22;3504;52.616;13.238;2023-10-08T11:03:12;16.90;49.45
6930;DHT22;3504;52.616;13.238;2023-10-08T11:08:24;16.84;51.70
6930;DHT22;3504;52.616;13.238;2023-10-08T11:13:25;17.11;49.49
6930;DHT22;3504;52.616;13.238;2023-10-08T11:18:44;16.60;47.67
6930;DHT22;3504;52.616;13.238;2023-10-08T11:23:49;16.80;49.72
6930;DHT22;3504;52.616;13.238;2023-10-08T11:29:09;16.87;45.22
6930;DHT22;3504;52.616;13.238;2023-10-08T11:34:15;16.72;45.68
6930;DHT22;3504;52.616;13.238;2023-10-08T11:39:20;17.06;48.73
6930;DHT22;3504;52.616;13.238;2023-10-08T11:44:23;17.25;48.37
6930;DHT22;3504;52.616;13.238;2023-10-08T11:49:24;17.28;47.00
6930;DHT22;3504;52.616;13.238;2023-10-08T11:54:25;17.31;42.86
6930;DHT22;3504;52.616;13.238;2023-10-08T11:59:27;17.18;46.05
6930;DHT22;3504;52.616;13.238;2023-10-08T12:04:30;17.48;45.51
6930;DHT22;3504;52.616;13.238;2023-10-08T12:09:30;17.48;46.17
6930;DHT22;3504;52.616;13.238;2023-10-08T12:14:31;17.42;43.97
6930;DHT22;3504;52.616;13.238;2023-10-08T12:19:31;17.23;47.34
6930;DHT22;3504;52.616;13.238;2023-10-08T12:24:32;16.99;44.67
6930;DHT22;3504;52.616;13.238;2023-10-08T12:29:33;16.80;45.44
6930;DHT22;3504;52.616;13.238;2023-10-08T12:34:35;16.94;45.79
6930;DHT22;3504;52.616;13.238;2023-10-08T12:39:36;16.70;48.14
6930;DHT22;3504;52.616;13.238;2023-10-08T12:44:50;16.80;46.30
6930;DHT22;3504;52.616;13.238;2023-10-08T12:49:51;16.64;42.95
6930;DHT22;3504;52.616;13.238;2023-10-08T12:54:54;16.70;45.98
6930;DHT22;3504;52.616;13.238;2023-10-08T12:59:56;16.43;42.08
6930;DHT22;3504;52.616;13.238;2023-10-08T13:04:57;16.32;45.96
6930;DHT22;3504;52.616;13.238;2023-10-08T13:09:59;16.14;46.66
6930;DHT22;3504;52.616;13.238;2023-10-08T13:15:00;16.12;43.49
6930;DHT22;3504;52.616;13.238;2023-10-08T13:20:07;16.08;45.89
6930;DHT22;3504;52.616;13.238;2023-10-08T13:25:12;15.98;46.50
6930;DHT22;3504;52.616;13.238;2023-10-08T13:30:12;15.77;47.04
6930;DHT22;3504;52.616;13.238;2023-10-08T13:35:13;15.77;48.47
6930;DHT22;3504;52.616;13.238;2023-10-08T13:40:14;15.84;48.28
6930;DHT22;3504;52.616;13.238;2023-10-08T13:45:16;16.05;47.29
6930;DHT22;3504;52.616;13.238;2023-10-08T13:50:26;15.98;44.95
6930;DHT22;3504;52.616;13.238;2023-10-08T13:55:30;16.05;46.26
6930;DHT22;3504;52.616;13.238;2023-10-08T14:00:31;15.92;47.69
6930;DHT22;3504;52.616;13.238;2023-10-08T14:05:36;15.95;47.97
6930;DHT22;3504;52.616;13.238;2023-10-08T14:10:38;15.85;47.23
6930;DHT22;3504;52.616;13.238;2023-10-08T14:15:38;15.82;48.68
6930;DHT22;3504;52.616;13.238;2023-10-08T14:20:45;15.80;48.25
6930;DHT22;3504;52.616;13.238;2023-10-08T14:25:47;15.73;48.58
6930;DHT22;3504;52.616;13.238;2023-10-08T14:30:49;15.67;48.20
6930;DHT22;3504;52.616;13.238;2023-10-08T14:35:56;15.53;48.38
6930;DHT22;3504;52.616;13.238;2023-10-08T14:41:15;15.40;48.71
6930;DHT22;3504;52.616;13.238;2023-10-08T14:46:34;15.35;50.31
6930;DHT22;3504;52.616;13.238;2023-10-08T14:51:38;15.33;49.02
6930;DHT22;3504;52.616;13.238;2023-10-08T14:56:40;15.27;51.02
6930;DHT22;3504;52.616;13.238;2023-10-08T15:01:41;15.18;50.54
6930;DHT22;3504;52.616;13.238;2023-10-08T15:06:41;15.09;50.99
6930;DHT22;3504;52.616;13.238;2023-10-08T15:11:44;15.08;52.49
6930;DHT22;3504;52.616;13.238;2023-10-08T15:16:46;15.03;50.63
6930;DHT22;3504;52.616;13.238;2023-10-08T15:21:52;14.93;51.72
6930;DHT22;3504;52.616;13.238;2023-10-08T15:26:54;14.86;53.56
6930;DHT22;3504;52.616;13.238;2023-10-08T15:31:54;14.75;55.12
6930;DHT22;3504;52.616;13.238;2023-10-08T15:36:55;14.77;56.63
6930;DHT22;3504;52.616;13.238;2023-10-08T15:41:57;14.71;56.40
6930;DHT22;3504;52.616;13.238;2023-10-08T15:46:57;14.64;57.72
6930;DHT22;3504;52.616;13.238;2023-10-08T15:51:57;14.55;56.91
6930;DHT22;3504;52.616;13.238;2023-10-08T15:56:58;14.44;57.22
6930;DHT22;3504;52.616;13.238;2023-10-08T16:01:59;14.37;58.43
6930;DHT22;3504;52.616;13.238;2023-10-08T16:07:00;14.28;58.52
6930;DHT22;3504;52.616;13.238;2023-10-08T16:12:00;14.12;60.97
6930;DHT22;3504;52.616;13.238;2023-10-08T16:17:01;14.02;62.94
6930;DHT22;3504;52.616;13.238;2023-10-08T16:22:04;13.92;64.14
6930;DHT22;3504;52.616;13.238;2023-10-08T16:27:05;13.85;65.29
6930;DHT22;3504;52.616;13.238;2023-10-08T16:32:07;13.76;66.05
6930;DHT22;3504;52.616;13.238;2023-10-08T16:37:08;13.66;66.49
6930;DHT22;3504;52.616;13.238;2023-10-08T16:42:08;13.56;67.61
6930;DHT22;3504;52.616;13.238;2023-10-08T16:47:09;13.48;68.50
6930;DHT22;3504;52.616;13.238;2023-10-08T16:52:11;13.42;68.15
6930;DHT22;3504;52.616;13.238;2023-10-08T16:57:12;13.36;69.37
6930;DHT22;3504;52.616;13.238;2023-10-08T17:02:13;13.30;70.06
6930;DHT22;3504;52.616;13.238;2023-10-08T17:07:14;13.24;70.56
6930;DHT22;3504;52.616;13.238;2023-10-08T17:12:16;13.21;70.08
6930;DHT22;3504;52.616;13.238;2023-10-08T17:17:19;13.14;70.88
6930;DHT22;3504;52.616;13.238;2023-10-08T17:22:19;13.07;70.75
6930;DHT22;3504;52.616;13.238;2023-10-08T17:27:20;13.08;71.43
6930;DHT22;3504;52.616;13.238;2023-10-08T17:32:21;12.94;71.17
6930;DHT22;3504;52.616;13.238;2023-10-08T17:37:22;12.90;71.31
6930;DHT22;3504;52.616;13.238;2023-10-08T17:42:24;12.88;71.04
6930;DHT22;3504;52.616;13.238;2023-10-08T17:47:24;12.83;71.93
6930;DHT22;3504;52.616;13.238;2023-10-08T17:52:28;12.77;72.36
6930;DHT22;3504;52.616;13.238;2023-10-08T17:57:29;12.76;71.99
6930;DHT22;3504;52.616;13.238;2023-10-08T18:02:30;12.73;72.13
6930;DHT22;3504;52.616;13.238;2023-10-08T18:07:32;12.69;72.45
6930;DHT22;3504;52.616;13.238;2023-10-08T18:12:32;12.60;73.40
6930;DHT22;3504;52.616;13.238;2023-10-08T18:17:32;12.56;73.31
6930;DHT22;3504;52.616;13.238;2023-10-08T18:22:33;12.53;73.05
6930;DHT22;3504;52.616;13.238;2023-10-08T18:27:35;12.50;73.65
6930;DHT22;3504;52.616;13.238;2023-10-08T18:32:37;12.43;73.77
6930;DHT22;3504;52.616;13.238;2023-10-08T18:37:37;12.29;73.69
6930;DHT22;3504;52.616;13.238;2023-10-08T18:42:44;12.29;74.46
6930;DHT22;3504;52.616;13.238;2023-10-08T18:47:47;12.26;74.07
6930;DHT22;3504;52.616;13.238;2023-10-08T18:52:47;12.24;74.39
6930;DHT22;3504;52.616;13.238;2023-10-08T18:57:49;12.11;74.45
6930;DHT22;3504;52.616;13.238;2023-10-08T19:02:56;11.99;74.51
6930;DHT22;3504;52.616;13.238;2023-10-08T19:07:57;11.95;75.28
6930;DHT22;3504;52.616;13.238;2023-10-08T19:12:58;11.99;74.77
6930;DHT22;3504;52.616;13.238;2023-10-08T19:17:59;11.97;74.79
6930;DHT22;3504;52.616;13.238;2023-10-08T19:23:05;11.91;75.44
6930;DHT22;3504;52.616;13.238;2023-10-08T19:28:09;11.88;75.74
6930;DHT22;3504;52.616;13.238;2023-10-08T19:33:11;11.84;76.13
6930;DHT22;3504;52.616;13.238;2023-10-08T19:38:13;11.77;75.79
6930;DHT22;3504;52.616;13.238;2023-10-08T19:43:14;11.71;76.08
6930;DHT22;3504;52.616;13.238;2023-10-08T19:48:14;11.67;75.81
6930;DHT22;3504;52.616;13.238;2023-10-08T19:53:15;11.61;76.42
6930;DHT22;3504;52.616;13.238;2023-10-08T19:58:16;11.58;75.87
6930;DHT22;3504;52.616;13.238;2023-10-08T20:03:17;11.53;75.54
6930;DHT22;3504;52.616;13.238;2023-10-08T20:08:20;11.46;75.73
6930;DHT22;3504;52.616;13.238;2023-10-08T20:13:21;11.44;76.20
6930;DHT22;3504;52.616;13.238;2023-10-08T20:18:23;11.39;76.05
6930;DHT22;3504;52.616;13.238;2023-10-08T20:23:26;11.37;76.62
6930;DHT22;3504;52.616;13.238;2023-10-08T20:28:29;11.27;76.73
6930;DHT22;3504;52.616;13.238;2023-10-08T20:33:30;11.26;76.75
6930;DHT22;3504;52.616;13.238;2023-10-08T20:38:30;11.26;77.48
6930;DHT22;3504;52.616;13.238;2023-10-08T20:43:32;11.23;77.16
6930;DHT22;3504;52.616;13.238;2023-10-08T20:48:33;11.22;77.50
6930;DHT22;3504;52.616;13.238;2023-10-08T20:53:34;11.20;77.63
6930;DHT22;3504;52.616;13.238;2023-10-08T20:58:35;11.23;77.05
6930;DHT22;3504;52.616;13.238;2023-10-08T21:03:36;11.23;76.87
6930;DHT22;3504;52.616;13.238;2023-10-08T21:08:36;11.24;76.81
6930;DHT22;3504;52.616;13.238;2023-10-08T21:13:37;11.22;77.07
6930;DHT22;3504;52.616;13.238;2023-10-08T21:18:38;11.19;77.49
6930;DHT22;3504;52.616;13.238;2023-10-08T21:23:39;11.17;77.26
6930;DHT22;3504;52.616;13.238;2023-10-08T21:28:39;11.16;77.50
6930;DHT22;3504;52.616;13.238;2023-10-08T21:33:40;11.09;77.78
6930;DHT22;3504;52.616;13.238;2023-10-08T21:38:40;11.02;78.04
6930;DHT22;3504;52.616;13.238;2023-10-08T21:43:42;10.97;78.52
6930;DHT22;3504;52.616;13.238;2023-10-08T21:48:42;10.96;78.23
6930;DHT22;3504;52.616;13.238;2023-10-08T21:53:43;10.96;78.51
6930;DHT22;3504;52.616;13.238;2023-10-08T21:58:44;10.91;78.35
6930;DHT22;3504;52.616;13.238;2023-10-08T22:03:46;10.92;78.84
6930;DHT22;3504;52.616;13.238;2023-10-08T22:08:47;10.93;78.53
6930;DHT22;3504;52.616;13.238;2023-10-08T22:13:48;10.96;78.91
6930;DHT22;3504;52.616;13.238;2023-10-08T22:18:49;11.00;78.35
6930;DHT22;3504;52.616;13.238;2023-10-08T22:23:56;11.03;78.03
6930;DHT22;3504;52.616;13.238;2023-10-08T22:28:57;11.05;78.50
6930;DHT22;3504;52.616;13.238;2023-10-08T22:33:58;11.05;77.85
6930;DHT22;3504;52.616;13.238;2023-10-08T22:39:04;11.07;78.31
6930;DHT22;3504;52.616;13.238;2023-10-08T22:44:11;11.07;78.24
6930;DHT22;3504;52.616;13.238;2023-10-08T22:49:14;11.03;77.65
6930;DHT22;3504;52.616;13.238;2023-10-08T22:54:18;10.97;77.47
6930;DHT22;3504;52.616;13.238;2023-10-08T22:59:19;10.95;77.05
6930;DHT22;3504;52.616;13.238;2023-10-08T23:04:20;10.96;76.91
6930;DHT22;3504;52.616;13.238;2023-10-08T23:09:20;11.00;77.80
6930;DHT22;3504;52.616;13.238;2023-10-08T23:14:28;11.06;77.43
6930;DHT22;3504;52.616;13.238;2023-10-08T23:19:28;11.06;77.64
6930;DHT22;3504;52.616;13.238;2023-10-08T23:24:31;11.05;77.61
6930;DHT22;3504;52.616;13.238;2023-10-08T23:29:32;11.00;78.16
6930;DHT22;3504;52.616;13.238;2023-10-08T23:34:32;10.95;78.39
6930;DHT22;3504;52.616;13.238;2023-10-08T23:39:33;10.84;79.67
6930;DHT22;3504;52.616;13.238;2023-10-08T23:44:36;10.78;79.99
6930;DHT22;3504;52.616;13.238;2023-10-08T23:49:38;10.76;79.90
6930;DHT22;3504;52.616;13.238;2023-10-08T23:54:48;10.76;80.53
6930;DHT22;3504;52.616;13.238;2023-10-08T23:59:57;10.79;80.62
